sensor_id;sensor_type;location;lat;lon;timestamp;P1;durP1;ratioP1;P2;durP2;ratioP2
69906;SDS011;57190;47.918;8.112;2023-03-01T00:01:29;11.87;;;10.77;;
69906;SDS011;57190;47.918;8.112;2023-03-01T00:03:55;12.67;;;11.53;;
69906;SDS011;57190;47.918;8.112;2023-03-01T00:06:23;12.60;;;10.57;;
69906;SDS011;57190;47.918;8.112;2023-03-01T00:08:50;12.73;;;11.53;;
69906;SDS011;57190;47.918;8.112;2023-03-01T00:11:22;13.17;;;11.87;;
69906;SDS011;57190;47.918;8.112;2023-03-01T00:13:52;12.47;;;11.27;;
69906;SDS011;57190;47.918;8.112;2023-03-01T00:16:20;12.90;;;11.67;;
69906;SDS011;57190;47.918;8.112;2023-03-01T00:18:48;13.10;;;11.90;;
69906;SDS011;57190;47.918;8.112;2023-03-01T00:21:14;12.67;;;11.43;;
69906;SDS011;57190;47.918;8.112;2023-03-01T00:23:40;14.10;;;12.70;;
69906;SDS011;57190;47.918;8.112;2023-03-01T00:26:06;13.47;;;12.17;;
69906;SDS011;57190;47.918;8.112;2023-03-01T00:28:34;12.77;;;11.67;;
69906;SDS011;57190;47.918;8.112;2023-03-01T00:31:07;12.07;;;10.97;;
69906;SDS011;57190;47.918;8.112;2023-03-01T00:33:37;13.33;;;12.13;;
69906;SDS011;57190;47.918;8.112;2023-03-01T00:36:03;12.57;;;11.37;;
69906;SDS011;57190;47.918;8.112;2023-03-01T00:38:29;13.13;;;11.83;;
69906;SDS011;57190;47.918;8.112;2023-03-01T00:40:55;12.77;;;11.57;;
69906;SDS011;57190;47.918;8.112;2023-03-01T00:43:20;13.40;;;11.90;;
69906;SDS011;57190;47.918;8.112;2023-03-01T00:45:46;12.63;;;11.43;;
69906;SDS011;57190;47.918;8.112;2023-03-01T00:48:11;13.20;;;11.90;;
69906;SDS011;57190;47.918;8.112;2023-03-01T00:50:37;12.50;;;11.30;;
69906;SDS011;57190;47.918;8.112;2023-03-01T00:53:02;12.87;;;11.57;;
69906;SDS011;57190;47.918;8.112;2023-03-01T00:55:29;13.20;;;11.90;;
69906;SDS011;57190;47.918;8.112;2023-03-01T00:57:55;14.27;;;12.97;;
69906;SDS011;57190;47.918;8.112;2023-03-01T01:00:21;14.37;;;11.77;;
69906;SDS011;57190;47.918;8.112;2023-03-01T01:02:46;13.73;;;12.53;;
69906;SDS011;57190;47.918;8.112;2023-03-01T01:05:12;12.80;;;11.70;;
69906;SDS011;57190;47.918;8.112;2023-03-01T01:07:38;12.37;;;11.27;;
69906;SDS011;57190;47.918;8.112;2023-03-01T01:10:04;14.13;;;12.77;;
69906;SDS011;57190;47.918;8.112;2023-03-01T01:12:30;12.53;;;11.33;;
69906;SDS011;57190;47.918;8.112;2023-03-01T01:14:55;13.93;;;12.70;;
69906;SDS011;57190;47.918;8.112;2023-03-01T01:17:21;14.30;;;13.00;;
69906;SDS011;57190;47.918;8.112;2023-03-01T01:19:46;15.60;;;14.00;;
69906;SDS011;57190;47.918;8.112;2023-03-01T01:22:12;14.73;;;13.33;;
69906;SDS011;57190;47.918;8.112;2023-03-01T01:24:37;15.07;;;13.67;;
69906;SDS011;57190;47.918;8.112;2023-03-01T01:27:03;13.70;;;12.50;;
69906;SDS011;57190;47.918;8.112;2023-03-01T01:29:28;14.83;;;13.43;;
69906;SDS011;57190;47.918;8.112;2023-03-01T01:31:54;14.80;;;13.40;;
69906;SDS011;57190;47.918;8.112;2023-03-01T01:34:20;14.73;;;13.23;;
69906;SDS011;57190;47.918;8.112;2023-03-01T01:36:50;14.27;;;12.87;;
69906;SDS011;57190;47.918;8.112;2023-03-01T01:39:19;14.67;;;13.27;;
69906;SDS011;57190;47.918;8.112;2023-03-01T01:41:45;14.27;;;12.97;;
69906;SDS011;57190;47.918;8.112;2023-03-01T01:44:21;14.73;;;13.27;;
69906;SDS011;57190;47.918;8.112;2023-03-01T01:46:59;14.63;;;13.20;;
69906;SDS011;57190;47.918;8.112;2023-03-01T01:49:40;14.53;;;13.23;;
69906;SDS011;57190;47.918;8.112;2023-03-01T01:52:14;14.47;;;13.17;;
69906;SDS011;57190;47.918;8.112;2023-03-01T01:57:40;14.73;;;13.33;;
69906;SDS011;57190;47.918;8.112;2023-03-01T02:00:16;15.27;;;13.87;;
69906;SDS011;57190;47.918;8.112;2023-03-01T02:02:46;14.17;;;12.87;;
69906;SDS011;57190;47.918;8.112;2023-03-01T02:08:17;15.93;;;14.43;;
69906;SDS011;57190;47.918;8.112;2023-03-01T02:10:44;14.70;;;13.30;;
69906;SDS011;57190;47.918;8.112;2023-03-01T02:13:11;15.23;;;13.73;;
69906;SDS011;57190;47.918;8.112;2023-03-01T02:15:38;14.90;;;13.50;;
69906;SDS011;57190;47.918;8.112;2023-03-01T02:18:05;15.30;;;13.77;;
69906;SDS011;57190;47.918;8.112;2023-03-01T02:20:34;14.23;;;12.93;;
69906;SDS011;57190;47.918;8.112;2023-03-01T02:23:13;15.67;;;14.17;;
69906;SDS011;57190;47.918;8.112;2023-03-01T02:28:37;14.60;;;13.10;;
69906;SDS011;57190;47.918;8.112;2023-03-01T02:31:05;15.47;;;13.97;;
69906;SDS011;57190;47.918;8.112;2023-03-01T02:33:51;14.30;;;12.93;;
69906;SDS011;57190;47.918;8.112;2023-03-01T02:36:39;14.67;;;13.43;;
69906;SDS011;57190;47.918;8.112;2023-03-01T02:39:06;14.87;;;13.47;;
69906;SDS011;57190;47.918;8.112;2023-03-01T02:41:39;15.53;;;14.03;;
69906;SDS011;57190;47.918;8.112;2023-03-01T02:44:07;15.90;;;14.30;;
69906;SDS011;57190;47.918;8.112;2023-03-01T02:46:33;15.33;;;13.73;;
69906;SDS011;57190;47.918;8.112;2023-03-01T02:48:59;14.57;;;13.17;;
69906;SDS011;57190;47.918;8.112;2023-03-01T02:51:27;13.73;;;12.43;;
69906;SDS011;57190;47.918;8.112;2023-03-01T02:56:39;14.17;;;12.77;;
69906;SDS011;57190;47.918;8.112;2023-03-01T02:59:06;13.63;;;12.33;;
69906;SDS011;57190;47.918;8.112;2023-03-01T03:01:32;15.37;;;12.87;;
69906;SDS011;57190;47.918;8.112;2023-03-01T03:04:04;15.40;;;13.90;;
69906;SDS011;57190;47.918;8.112;2023-03-01T03:06:30;13.97;;;12.53;;
69906;SDS011;57190;47.918;8.112;2023-03-01T03:08:56;14.83;;;13.43;;
69906;SDS011;57190;47.918;8.112;2023-03-01T03:11:22;15.57;;;14.00;;
69906;SDS011;57190;47.918;8.112;2023-03-01T03:13:48;14.73;;;13.33;;
69906;SDS011;57190;47.918;8.112;2023-03-01T03:16:14;14.87;;;13.27;;
69906;SDS011;57190;47.918;8.112;2023-03-01T03:18:39;15.07;;;13.53;;
69906;SDS011;57190;47.918;8.112;2023-03-01T03:21:09;14.50;;;13.07;;
69906;SDS011;57190;47.918;8.112;2023-03-01T03:23:36;14.03;;;12.73;;
69906;SDS011;57190;47.918;8.112;2023-03-01T03:26:02;15.03;;;13.47;;
69906;SDS011;57190;47.918;8.112;2023-03-01T03:28:33;15.60;;;13.97;;
69906;SDS011;57190;47.918;8.112;2023-03-01T03:30:59;14.43;;;13.03;;
69906;SDS011;57190;47.918;8.112;2023-03-01T03:33:31;14.83;;;13.23;;
69906;SDS011;57190;47.918;8.112;2023-03-01T03:35:57;15.57;;;14.03;;
69906;SDS011;57190;47.918;8.112;2023-03-01T03:38:23;14.57;;;13.17;;
69906;SDS011;57190;47.918;8.112;2023-03-01T03:40:55;15.60;;;14.07;;
69906;SDS011;57190;47.918;8.112;2023-03-01T03:43:28;14.07;;;12.77;;
69906;SDS011;57190;47.918;8.112;2023-03-01T03:46:04;13.60;;;12.20;;
69906;SDS011;57190;47.918;8.112;2023-03-01T03:48:33;13.07;;;11.97;;
69906;SDS011;57190;47.918;8.112;2023-03-01T03:51:15;13.50;;;12.20;;
69906;SDS011;57190;47.918;8.112;2023-03-01T03:53:43;14.27;;;12.80;;
69906;SDS011;57190;47.918;8.112;2023-03-01T03:56:17;14.17;;;12.77;;
69906;SDS011;57190;47.918;8.112;2023-03-01T03:58:42;14.57;;;13.10;;
69906;SDS011;57190;47.918;8.112;2023-03-01T04:01:08;15.30;;;13.80;;
69906;SDS011;57190;47.918;8.112;2023-03-01T04:03:36;15.30;;;13.80;;
69906;SDS011;57190;47.918;8.112;2023-03-01T04:06:02;13.97;;;12.57;;
69906;SDS011;57190;47.918;8.112;2023-03-01T04:08:31;14.67;;;13.23;;
69906;SDS011;57190;47.918;8.112;2023-03-01T04:10:58;14.53;;;13.17;;
69906;SDS011;57190;47.918;8.112;2023-03-01T04:13:45;14.83;;;13.43;;
69906;SDS011;57190;47.918;8.112;2023-03-01T04:16:10;14.53;;;13.13;;
69906;SDS011;57190;47.918;8.112;2023-03-01T04:18:36;14.47;;;13.13;;
69906;SDS011;57190;47.918;8.112;2023-03-01T04:21:08;14.23;;;12.93;;
69906;SDS011;57190;47.918;8.112;2023-03-01T04:23:36;15.33;;;13.83;;
69906;SDS011;57190;47.918;8.112;2023-03-01T04:26:02;13.73;;;12.53;;
69906;SDS011;57190;47.918;8.112;2023-03-01T04:30:56;14.03;;;12.77;;
69906;SDS011;57190;47.918;8.112;2023-03-01T04:33:23;15.97;;;14.37;;
69906;SDS011;57190;47.918;8.112;2023-03-01T04:35:50;14.53;;;13.07;;
69906;SDS011;57190;47.918;8.112;2023-03-01T04:38:16;15.80;;;14.20;;
69906;SDS011;57190;47.918;8.112;2023-03-01T04:40:43;15.63;;;14.13;;
69906;SDS011;57190;47.918;8.112;2023-03-01T04:43:09;16.00;;;14.40;;
69906;SDS011;57190;47.918;8.112;2023-03-01T04:45:35;16.60;;;14.93;;
69906;SDS011;57190;47.918;8.112;2023-03-01T04:48:02;16.93;;;15.13;;
69906;SDS011;57190;47.918;8.112;2023-03-01T04:50:28;15.37;;;13.77;;
69906;SDS011;57190;47.918;8.112;2023-03-01T04:52:54;16.60;;;14.90;;
69906;SDS011;57190;47.918;8.112;2023-03-01T04:55:24;16.30;;;14.73;;
69906;SDS011;57190;47.918;8.112;2023-03-01T04:57:53;16.43;;;14.73;;
69906;SDS011;57190;47.918;8.112;2023-03-01T05:00:19;15.73;;;14.17;;
69906;SDS011;57190;47.918;8.112;2023-03-01T05:02:49;16.90;;;15.20;;
69906;SDS011;57190;47.918;8.112;2023-03-01T05:05:31;16.27;;;14.60;;
69906;SDS011;57190;47.918;8.112;2023-03-01T05:07:59;17.10;;;15.30;;
69906;SDS011;57190;47.918;8.112;2023-03-01T05:10:27;16.20;;;14.63;;
69906;SDS011;57190;47.918;8.112;2023-03-01T05:12:58;15.77;;;14.20;;
69906;SDS011;57190;47.918;8.112;2023-03-01T05:15:25;16.03;;;14.43;;
69906;SDS011;57190;47.918;8.112;2023-03-01T05:17:53;16.83;;;15.13;;
69906;SDS011;57190;47.918;8.112;2023-03-01T05:20:19;15.97;;;14.37;;
69906;SDS011;57190;47.918;8.112;2023-03-01T05:22:48;17.57;;;15.70;;
69906;SDS011;57190;47.918;8.112;2023-03-01T05:25:15;16.67;;;14.97;;
69906;SDS011;57190;47.918;8.112;2023-03-01T05:27:40;15.47;;;13.97;;
69906;SDS011;57190;47.918;8.112;2023-03-01T05:30:06;17.17;;;15.27;;
69906;SDS011;57190;47.918;8.112;2023-03-01T05:32:46;16.27;;;14.60;;
69906;SDS011;57190;47.918;8.112;2023-03-01T05:35:13;16.97;;;15.27;;
69906;SDS011;57190;47.918;8.112;2023-03-01T05:37:43;17.07;;;15.37;;
69906;SDS011;57190;47.918;8.112;2023-03-01T05:40:11;17.07;;;15.37;;
69906;SDS011;57190;47.918;8.112;2023-03-01T05:43:15;16.85;;;15.05;;
69906;SDS011;57190;47.918;8.112;2023-03-01T05:45:35;15.97;;;14.30;;
69906;SDS011;57190;47.918;8.112;2023-03-01T05:48:02;15.67;;;14.00;;
69906;SDS011;57190;47.918;8.112;2023-03-01T05:50:31;16.87;;;15.27;;
69906;SDS011;57190;47.918;8.112;2023-03-01T05:55:26;15.93;;;14.30;;
69906;SDS011;57190;47.918;8.112;2023-03-01T05:57:52;17.33;;;15.53;;
69906;SDS011;57190;47.918;8.112;2023-03-01T06:00:19;15.73;;;14.07;;
69906;SDS011;57190;47.918;8.112;2023-03-01T06:02:47;15.73;;;14.13;;
69906;SDS011;57190;47.918;8.112;2023-03-01T06:05:13;16.40;;;14.70;;
69906;SDS011;57190;47.918;8.112;2023-03-01T06:07:40;15.53;;;14.13;;
69906;SDS011;57190;47.918;8.112;2023-03-01T06:10:07;15.97;;;14.43;;
69906;SDS011;57190;47.918;8.112;2023-03-01T06:12:34;15.47;;;13.97;;
69906;SDS011;57190;47.918;8.112;2023-03-01T06:15:01;16.57;;;14.90;;
69906;SDS011;57190;47.918;8.112;2023-03-01T06:17:29;15.30;;;13.70;;
69906;SDS011;57190;47.918;8.112;2023-03-01T06:20:05;16.27;;;14.63;;
69906;SDS011;57190;47.918;8.112;2023-03-01T06:22:31;15.23;;;13.63;;
69906;SDS011;57190;47.918;8.112;2023-03-01T06:24:57;15.70;;;14.23;;
69906;SDS011;57190;47.918;8.112;2023-03-01T06:27:22;16.33;;;14.63;;
69906;SDS011;57190;47.918;8.112;2023-03-01T06:30:03;15.93;;;14.47;;
69906;SDS011;57190;47.918;8.112;2023-03-01T06:32:48;15.70;;;14.07;;
69906;SDS011;57190;47.918;8.112;2023-03-01T06:35:21;16.37;;;14.73;;
69906;SDS011;57190;47.918;8.112;2023-03-01T06:37:54;15.87;;;14.20;;
69906;SDS011;57190;47.918;8.112;2023-03-01T06:40:23;16.23;;;14.63;;
69906;SDS011;57190;47.918;8.112;2023-03-01T06:42:52;15.77;;;14.17;;
69906;SDS011;57190;47.918;8.112;2023-03-01T06:45:18;15.50;;;13.93;;
69906;SDS011;57190;47.918;8.112;2023-03-01T06:47:48;15.17;;;13.67;;
69906;SDS011;57190;47.918;8.112;2023-03-01T06:50:14;15.70;;;14.20;;
69906;SDS011;57190;47.918;8.112;2023-03-01T06:52:40;15.00;;;13.60;;
69906;SDS011;57190;47.918;8.112;2023-03-01T06:55:42;15.60;;;14.07;;
69906;SDS011;57190;47.918;8.112;2023-03-01T06:58:36;14.87;;;13.37;;
69906;SDS011;57190;47.918;8.112;2023-03-01T07:01:08;15.37;;;13.87;;
69906;SDS011;57190;47.918;8.112;2023-03-01T07:03:46;15.40;;;13.83;;
69906;SDS011;57190;47.918;8.112;2023-03-01T07:06:17;15.07;;;13.47;;
69906;SDS011;57190;47.918;8.112;2023-03-01T07:08:43;15.83;;;14.27;;
69906;SDS011;57190;47.918;8.112;2023-03-01T07:11:12;15.43;;;13.80;;
69906;SDS011;57190;47.918;8.112;2023-03-01T07:13:38;15.40;;;13.90;;
69906;SDS011;57190;47.918;8.112;2023-03-01T07:16:08;16.07;;;14.57;;
69906;SDS011;57190;47.918;8.112;2023-03-01T07:18:34;16.57;;;14.37;;
69906;SDS011;57190;47.918;8.112;2023-03-01T07:21:14;16.50;;;14.80;;
69906;SDS011;57190;47.918;8.112;2023-03-01T07:23:54;14.70;;;13.17;;
69906;SDS011;57190;47.918;8.112;2023-03-01T07:26:23;15.00;;;13.50;;
69906;SDS011;57190;47.918;8.112;2023-03-01T07:29:05;14.47;;;12.97;;
69906;SDS011;57190;47.918;8.112;2023-03-01T07:31:32;15.53;;;14.00;;
69906;SDS011;57190;47.918;8.112;2023-03-01T07:33:57;15.73;;;14.23;;
69906;SDS011;57190;47.918;8.112;2023-03-01T07:36:23;16.10;;;14.60;;
69906;SDS011;57190;47.918;8.112;2023-03-01T07:38:55;16.93;;;15.13;;
69906;SDS011;57190;47.918;8.112;2023-03-01T07:41:21;15.73;;;14.20;;
69906;SDS011;57190;47.918;8.112;2023-03-01T07:46:40;15.43;;;13.93;;
69906;SDS011;57190;47.918;8.112;2023-03-01T07:49:09;15.57;;;14.07;;
69906;SDS011;57190;47.918;8.112;2023-03-01T07:51:35;14.67;;;13.37;;
69906;SDS011;57190;47.918;8.112;2023-03-01T07:54:07;14.60;;;13.13;;
69906;SDS011;57190;47.918;8.112;2023-03-01T07:56:36;15.43;;;14.00;;
69906;SDS011;57190;47.918;8.112;2023-03-01T07:59:01;16.10;;;14.50;;
69906;SDS011;57190;47.918;8.112;2023-03-01T08:01:27;14.83;;;13.50;;
69906;SDS011;57190;47.918;8.112;2023-03-01T08:03:52;15.10;;;13.70;;
69906;SDS011;57190;47.918;8.112;2023-03-01T08:06:18;14.13;;;12.83;;
69906;SDS011;57190;47.918;8.112;2023-03-01T08:08:54;15.70;;;14.23;;
69906;SDS011;57190;47.918;8.112;2023-03-01T08:11:34;13.97;;;12.67;;
69906;SDS011;57190;47.918;8.112;2023-03-01T08:13:59;14.50;;;13.13;;
69906;SDS011;57190;47.918;8.112;2023-03-01T08:16:28;15.40;;;13.93;;
69906;SDS011;57190;47.918;8.112;2023-03-01T08:19:06;14.73;;;13.33;;
69906;SDS011;57190;47.918;8.112;2023-03-01T08:21:33;15.17;;;13.53;;
69906;SDS011;57190;47.918;8.112;2023-03-01T08:24:02;14.70;;;13.20;;
69906;SDS011;57190;47.918;8.112;2023-03-01T08:26:35;15.43;;;13.93;;
69906;SDS011;57190;47.918;8.112;2023-03-01T08:29:01;14.97;;;13.50;;
69906;SDS011;57190;47.918;8.112;2023-03-01T08:31:28;14.90;;;13.40;;
69906;SDS011;57190;47.918;8.112;2023-03-01T08:33:54;14.27;;;12.83;;
69906;SDS011;57190;47.918;8.112;2023-03-01T08:36:23;14.50;;;13.10;;
69906;SDS011;57190;47.918;8.112;2023-03-01T08:38:49;14.87;;;13.47;;
69906;SDS011;57190;47.918;8.112;2023-03-01T08:41:15;14.40;;;13.00;;
69906;SDS011;57190;47.918;8.112;2023-03-01T08:43:41;14.37;;;12.93;;
69906;SDS011;57190;47.918;8.112;2023-03-01T08:46:07;14.30;;;12.90;;
69906;SDS011;57190;47.918;8.112;2023-03-01T08:48:36;14.77;;;13.37;;
69906;SDS011;57190;47.918;8.112;2023-03-01T08:51:13;15.07;;;13.47;;
69906;SDS011;57190;47.918;8.112;2023-03-01T08:53:58;13.57;;;12.17;;
69906;SDS011;57190;47.918;8.112;2023-03-01T08:56:28;14.30;;;12.90;;
69906;SDS011;57190;47.918;8.112;2023-03-01T08:58:59;13.67;;;12.47;;
69906;SDS011;57190;47.918;8.112;2023-03-01T09:01:25;14.40;;;12.73;;
69906;SDS011;57190;47.918;8.112;2023-03-01T09:03:50;12.77;;;11.57;;
69906;SDS011;57190;47.918;8.112;2023-03-01T09:06:16;13.23;;;11.93;;
69906;SDS011;57190;47.918;8.112;2023-03-01T09:08:44;13.23;;;12.03;;
69906;SDS011;57190;47.918;8.112;2023-03-01T09:11:11;13.80;;;12.53;;
69906;SDS011;57190;47.918;8.112;2023-03-01T09:13:40;13.47;;;12.17;;
69906;SDS011;57190;47.918;8.112;2023-03-01T09:16:06;14.13;;;12.73;;
69906;SDS011;57190;47.918;8.112;2023-03-01T09:18:32;13.40;;;12.20;;
69906;SDS011;57190;47.918;8.112;2023-03-01T09:23:38;14.00;;;12.67;;
69906;SDS011;57190;47.918;8.112;2023-03-01T09:26:08;14.93;;;13.47;;
69906;SDS011;57190;47.918;8.112;2023-03-01T09:28:38;14.83;;;13.53;;
69906;SDS011;57190;47.918;8.112;2023-03-01T09:31:06;14.83;;;13.33;;
69906;SDS011;57190;47.918;8.112;2023-03-01T09:33:32;15.10;;;13.67;;
69906;SDS011;57190;47.918;8.112;2023-03-01T09:36:05;14.07;;;12.77;;
69906;SDS011;57190;47.918;8.112;2023-03-01T09:38:32;14.57;;;13.07;;
69906;SDS011;57190;47.918;8.112;2023-03-01T09:40:58;14.83;;;13.33;;
69906;SDS011;57190;47.918;8.112;2023-03-01T09:43:30;13.93;;;12.53;;
69906;SDS011;57190;47.918;8.112;2023-03-01T09:46:05;14.13;;;12.73;;
69906;SDS011;57190;47.918;8.112;2023-03-01T09:48:42;15.27;;;13.87;;
69906;SDS011;57190;47.918;8.112;2023-03-01T09:51:18;14.73;;;13.33;;
69906;SDS011;57190;47.918;8.112;2023-03-01T09:53:48;14.17;;;12.73;;
69906;SDS011;57190;47.918;8.112;2023-03-01T09:56:19;14.97;;;13.57;;
69906;SDS011;57190;47.918;8.112;2023-03-01T09:59:13;15.17;;;13.67;;
69906;SDS011;57190;47.918;8.112;2023-03-01T10:04:49;14.73;;;13.33;;
69906;SDS011;57190;47.918;8.112;2023-03-01T10:10:10;15.10;;;13.70;;
69906;SDS011;57190;47.918;8.112;2023-03-01T10:12:49;14.10;;;12.83;;
69906;SDS011;57190;47.918;8.112;2023-03-01T10:15:18;14.70;;;13.40;;
69906;SDS011;57190;47.918;8.112;2023-03-01T10:17:51;14.10;;;12.70;;
69906;SDS011;57190;47.918;8.112;2023-03-01T10:20:26;14.13;;;12.83;;
69906;SDS011;57190;47.918;8.112;2023-03-01T10:22:58;15.17;;;13.67;;
69906;SDS011;57190;47.918;8.112;2023-03-01T10:25:31;14.07;;;12.77;;
69906;SDS011;57190;47.918;8.112;2023-03-01T10:31:03;13.93;;;12.53;;
69906;SDS011;57190;47.918;8.112;2023-03-01T10:33:31;14.50;;;13.00;;
69906;SDS011;57190;47.918;8.112;2023-03-01T10:36:00;14.80;;;13.50;;
69906;SDS011;57190;47.918;8.112;2023-03-01T10:38:26;14.57;;;13.27;;
69906;SDS011;57190;47.918;8.112;2023-03-01T10:41:04;14.50;;;13.20;;
69906;SDS011;57190;47.918;8.112;2023-03-01T10:43:43;14.50;;;13.20;;
69906;SDS011;57190;47.918;8.112;2023-03-01T10:46:33;15.83;;;14.27;;
69906;SDS011;57190;47.918;8.112;2023-03-01T10:51:56;14.67;;;13.17;;
69906;SDS011;57190;47.918;8.112;2023-03-01T10:54:43;14.63;;;13.23;;
69906;SDS011;57190;47.918;8.112;2023-03-01T10:57:35;14.63;;;13.13;;
69906;SDS011;57190;47.918;8.112;2023-03-01T11:00:14;14.97;;;13.57;;
69906;SDS011;57190;47.918;8.112;2023-03-01T11:02:42;15.37;;;13.77;;
69906;SDS011;57190;47.918;8.112;2023-03-01T11:07:47;14.20;;;12.87;;
69906;SDS011;57190;47.918;8.112;2023-03-01T11:10:24;13.57;;;12.30;;
69906;SDS011;57190;47.918;8.112;2023-03-01T11:12:53;14.40;;;13.00;;
69906;SDS011;57190;47.918;8.112;2023-03-01T11:15:30;14.40;;;13.10;;
69906;SDS011;57190;47.918;8.112;2023-03-01T11:17:55;15.47;;;13.97;;
69906;SDS011;57190;47.918;8.112;2023-03-01T11:20:26;14.37;;;13.07;;
69906;SDS011;57190;47.918;8.112;2023-03-01T11:22:54;13.90;;;12.57;;
69906;SDS011;57190;47.918;8.112;2023-03-01T11:25:27;14.40;;;13.10;;
69906;SDS011;57190;47.918;8.112;2023-03-01T11:27:56;12.90;;;11.73;;
69906;SDS011;57190;47.918;8.112;2023-03-01T11:30:34;14.63;;;13.33;;
69906;SDS011;57190;47.918;8.112;2023-03-01T11:36:07;14.60;;;13.30;;
69906;SDS011;57190;47.918;8.112;2023-03-01T11:38:55;13.70;;;12.47;;
69906;SDS011;57190;47.918;8.112;2023-03-01T11:41:26;12.80;;;11.60;;
69906;SDS011;57190;47.918;8.112;2023-03-01T11:46:46;13.47;;;12.27;;
69906;SDS011;57190;47.918;8.112;2023-03-01T11:49:18;13.30;;;12.10;;
69906;SDS011;57190;47.918;8.112;2023-03-01T11:54:58;13.70;;;12.47;;
69906;SDS011;57190;47.918;8.112;2023-03-01T12:05:59;12.93;;;11.87;;
69906;SDS011;57190;47.918;8.112;2023-03-01T12:08:35;12.37;;;11.23;;
69906;SDS011;57190;47.918;8.112;2023-03-01T12:19:31;13.40;;;12.27;;
69906;SDS011;57190;47.918;8.112;2023-03-01T12:22:09;14.10;;;12.80;;
69906;SDS011;57190;47.918;8.112;2023-03-01T12:34:14;13.37;;;12.20;;
69906;SDS011;57190;47.918;8.112;2023-03-01T12:39:22;12.57;;;11.47;;
69906;SDS011;57190;47.918;8.112;2023-03-01T12:44:42;13.93;;;12.73;;
69906;SDS011;57190;47.918;8.112;2023-03-01T12:53:29;14.83;;;13.47;;
69906;SDS011;57190;47.918;8.112;2023-03-01T12:56:36;14.80;;;13.13;;
69906;SDS011;57190;47.918;8.112;2023-03-01T13:02:48;13.80;;;12.60;;
69906;SDS011;57190;47.918;8.112;2023-03-01T13:09:13;14.13;;;12.93;;
69906;SDS011;57190;47.918;8.112;2023-03-01T13:11:47;14.63;;;13.20;;
69906;SDS011;57190;47.918;8.112;2023-03-01T13:16:55;14.43;;;13.03;;
69906;SDS011;57190;47.918;8.112;2023-03-01T13:19:27;14.50;;;13.27;;
69906;SDS011;57190;47.918;8.112;2023-03-01T13:22:01;14.13;;;12.93;;
69906;SDS011;57190;47.918;8.112;2023-03-01T13:25:10;14.03;;;12.83;;
69906;SDS011;57190;47.918;8.112;2023-03-01T13:27:41;15.00;;;13.70;;
69906;SDS011;57190;47.918;8.112;2023-03-01T13:36:03;14.80;;;13.50;;
69906;SDS011;57190;47.918;8.112;2023-03-01T13:44:13;14.47;;;13.17;;
69906;SDS011;57190;47.918;8.112;2023-03-01T13:46:51;14.37;;;13.07;;
69906;SDS011;57190;47.918;8.112;2023-03-01T13:49:20;14.40;;;13.20;;
69906;SDS011;57190;47.918;8.112;2023-03-01T13:51:51;14.80;;;13.50;;
69906;SDS011;57190;47.918;8.112;2023-03-01T13:54:29;14.63;;;13.23;;
69906;SDS011;57190;47.918;8.112;2023-03-01T13:57:00;15.77;;;14.47;;
69906;SDS011;57190;47.918;8.112;2023-03-01T13:59:29;15.70;;;14.30;;
69906;SDS011;57190;47.918;8.112;2023-03-01T14:01:59;14.30;;;13.00;;
69906;SDS011;57190;47.918;8.112;2023-03-01T14:04:27;14.97;;;13.67;;
69906;SDS011;57190;47.918;8.112;2023-03-01T14:09:58;13.77;;;12.50;;
69906;SDS011;57190;47.918;8.112;2023-03-01T14:18:19;14.27;;;12.97;;
69906;SDS011;57190;47.918;8.112;2023-03-01T14:20:54;14.87;;;13.47;;
69906;SDS011;57190;47.918;8.112;2023-03-01T14:23:21;13.97;;;12.67;;
69906;SDS011;57190;47.918;8.112;2023-03-01T14:28:26;13.23;;;12.10;;
69906;SDS011;57190;47.918;8.112;2023-03-01T14:30:54;15.30;;;13.90;;
69906;SDS011;57190;47.918;8.112;2023-03-01T14:33:34;13.63;;;12.53;;
69906;SDS011;57190;47.918;8.112;2023-03-01T14:36:25;13.80;;;12.53;;
69906;SDS011;57190;47.918;8.112;2023-03-01T14:38:55;13.47;;;12.27;;
69906;SDS011;57190;47.918;8.112;2023-03-01T14:41:21;13.63;;;12.23;;
69906;SDS011;57190;47.918;8.112;2023-03-01T14:43:51;13.80;;;12.63;;
69906;SDS011;57190;47.918;8.112;2023-03-01T14:46:25;13.47;;;12.17;;
69906;SDS011;57190;47.918;8.112;2023-03-01T14:49:04;14.57;;;13.27;;
69906;SDS011;57190;47.918;8.112;2023-03-01T14:51:39;12.93;;;11.80;;
69906;SDS011;57190;47.918;8.112;2023-03-01T14:54:25;12.60;;;11.50;;
69906;SDS011;57190;47.918;8.112;2023-03-01T14:56:54;13.07;;;11.97;;
69906;SDS011;57190;47.918;8.112;2023-03-01T14:59:24;12.33;;;11.33;;
69906;SDS011;57190;47.918;8.112;2023-03-01T15:01:53;13.07;;;11.77;;
69906;SDS011;57190;47.918;8.112;2023-03-01T15:04:22;13.70;;;12.50;;
69906;SDS011;57190;47.918;8.112;2023-03-01T15:06:52;13.13;;;11.83;;
69906;SDS011;57190;47.918;8.112;2023-03-01T15:09:20;13.23;;;12.13;;
69906;SDS011;57190;47.918;8.112;2023-03-01T15:11:47;14.00;;;12.63;;
69906;SDS011;57190;47.918;8.112;2023-03-01T15:17:26;12.30;;;11.30;;
69906;SDS011;57190;47.918;8.112;2023-03-01T15:19:58;13.07;;;11.97;;
69906;SDS011;57190;47.918;8.112;2023-03-01T15:22:25;12.90;;;11.60;;
69906;SDS011;57190;47.918;8.112;2023-03-01T15:24:52;13.70;;;12.27;;
69906;SDS011;57190;47.918;8.112;2023-03-01T15:30:17;14.13;;;12.83;;
69906;SDS011;57190;47.918;8.112;2023-03-01T15:35:51;13.97;;;12.77;;
69906;SDS011;57190;47.918;8.112;2023-03-01T15:38:28;13.77;;;12.57;;
69906;SDS011;57190;47.918;8.112;2023-03-01T15:40:55;13.37;;;12.27;;
69906;SDS011;57190;47.918;8.112;2023-03-01T15:46:04;13.63;;;12.23;;
69906;SDS011;57190;47.918;8.112;2023-03-01T15:48:30;13.40;;;12.13;;
69906;SDS011;57190;47.918;8.112;2023-03-01T15:50:56;12.83;;;11.73;;
69906;SDS011;57190;47.918;8.112;2023-03-01T15:53:24;13.53;;;12.33;;
69906;SDS011;57190;47.918;8.112;2023-03-01T15:55:55;13.37;;;12.17;;
69906;SDS011;57190;47.918;8.112;2023-03-01T15:58:40;13.27;;;12.07;;
69906;SDS011;57190;47.918;8.112;2023-03-01T16:01:15;13.57;;;12.40;;
69906;SDS011;57190;47.918;8.112;2023-03-01T16:03:45;14.13;;;12.77;;
69906;SDS011;57190;47.918;8.112;2023-03-01T16:06:10;13.70;;;12.30;;
69906;SDS011;57190;47.918;8.112;2023-03-01T16:08:52;13.53;;;12.33;;
69906;SDS011;57190;47.918;8.112;2023-03-01T16:11:19;14.03;;;12.77;;
69906;SDS011;57190;47.918;8.112;2023-03-01T16:13:45;13.07;;;11.87;;
69906;SDS011;57190;47.918;8.112;2023-03-01T16:16:20;14.50;;;13.10;;
69906;SDS011;57190;47.918;8.112;2023-03-01T16:18:46;13.13;;;11.93;;
69906;SDS011;57190;47.918;8.112;2023-03-01T16:21:29;13.23;;;12.03;;
69906;SDS011;57190;47.918;8.112;2023-03-01T16:24:05;14.20;;;12.80;;
69906;SDS011;57190;47.918;8.112;2023-03-01T16:26:44;13.23;;;12.03;;
69906;SDS011;57190;47.918;8.112;2023-03-01T16:29:10;13.50;;;12.10;;
69906;SDS011;57190;47.918;8.112;2023-03-01T16:31:35;14.50;;;13.20;;
69906;SDS011;57190;47.918;8.112;2023-03-01T16:34:03;13.50;;;12.20;;
69906;SDS011;57190;47.918;8.112;2023-03-01T16:36:28;13.27;;;11.97;;
69906;SDS011;57190;47.918;8.112;2023-03-01T16:38:55;13.37;;;12.17;;
69906;SDS011;57190;47.918;8.112;2023-03-01T16:41:24;14.20;;;13.00;;
69906;SDS011;57190;47.918;8.112;2023-03-01T16:43:49;14.37;;;13.07;;
69906;SDS011;57190;47.918;8.112;2023-03-01T16:46:19;13.63;;;12.43;;
69906;SDS011;57190;47.918;8.112;2023-03-01T16:48:47;13.30;;;12.00;;